Archival Weather

Republic

Farmingdale, New York (KFRG)

Report from: Saturday, February 17, 2024 2:45 AM EST
Current time: Friday, June 21, 2024 7:41 PM EDT

Current weather – Weather history – Daily summaries
Weather forecast

Present weatherMist
Temperature-1.1°C (30.0°F)
Wind chill-3.1°C (26.5°F)
Dew point-2.2°C (28.0°F)
Winds 3 kts (1.5 m/s, 3.5 mph) Northeast (50°)
Visibility1 mi. (1.6 km)
Clouds Ceiling: Vertical visibility 900 ft. (274 m)
Altimeter29.85 in.Hg (1011 mB)
Precipitiation0.03 in. (1 mm)
Relative humidity92 %
Density altitude-1,810 ft. (-552 m)
Remarks Fully automated report
Automated weather observing station without precipitation discriminator
Freezing rain sensor not operating
Flight conditions Instrument Meteorological Conditions
Raw dataKFRG 170745Z AUTO 05003KT 1SM BR VV009 M01/M02 A2985 RMK AO1 P0003 T10111022 FZRANO
An error has occurred. This application may no longer respond until reloaded. Reload 🗙